Airfield :







YOU CAN JOIN US ON...

 
LOGIN :

Register | Disclaimer

   EN    FR    IT 

 









Legend :    VFR   Marginal VFR   IFR   Intensive IFR   Very Intensive IFR
Visi :
Ceiling :
>= 8 km
>= 3000ft
5 to 8 km
1000 to 3000 ft
1500m to 5 km
500 to 1000 ft
800 to 1500m
200 to 500 ft
< 800m
< 200 ft
Symbols :   Thunderstorms  Fog  Heavy snow  Heavy precipitations  Wind > 20 kt






- Airport Elevation : 534 ft
- IATA code : PQI


KPQI - Northern Maine Regional Arpt At Presque Isle

CURRENT METAR :
  • 050820Z AUTO 15006KT 10SM SCT002 OVC021 M01/M01 A2991 RMK AO2 PNO $

EXPIRED METARs :
  • 050756Z AUTO 00000KT 10SM OVC021 M01/M02 A2991 RMK AO2 SLP158 T10061017 PNO $
  • 050656Z AUTO 00000KT 10SM OVC021 M01/M02 A2990 RMK AO2 RAE01UPB23E33SNB01E23 SLP154 T10061017 PNO $
  • 050556Z AUTO 00000KT 10SM -RA BKN025 BKN037 OVC044 01/M01 A2990 RMK AO2 UPE01RAB01 SLP156 6//// T00061011 10017 20006 53002 PNO $

TAF KPQI
Valid from the 05 at 06:00 until the 06 at 06:00 UTC


050601Z 0506/0606 VRB04KT 6SM -SN BKN025
FM050900 VRB03KT P6SM OVC007
FM052000 02009KT 5SM -RASN OVC007
FM052300 02013G23KT 1SM -SN OVC004
FM060100 01015KT 3/4SM -SN BR OVC004 WS020/04045KT
KZBW FIR / North America



MET'MAP, your aeronautical weather chart ! - Copyright ORBIFLY December 2007 - Disclaimer

ORBIFLY MET'MAP TEAM :

Programming & Development : Alexandra Zaïnal
Concept & original design : Baudouin d'Aumeries
Assistance for programming : Marc-Olivier Méhu
Technical & hardware support : Manuel Goepfert

Contact : metmap@orbifly.com




SOURCES & CREDITS :

   NOAA